Time;durP1;ratioP1;P1;durP2;ratioP2;P2;SDS_P1;SDS_P2;PMS_P1;PMS_P2;Temp;Humidity;BMP_temperature;BMP_pressure;BME280_temperature;BME280_humidity;BME280_pressure;Samples;Min_cycle;Max_cycle;Signal;HPM_P1;HPM_P2
2021/01/22 00:07:47;;;;;;;0.20;0.10;;;14.00;99.90;;;;;;20704980;28;20230;-73
2021/01/22 00:17:50;;;;;;;0.70;0.57;;;14.30;99.90;;;;;;20705334;28;20818;-77
2021/01/22 00:27:54;;;;;;;1.03;0.40;;;14.30;99.90;;;;;;20705920;28;20678;-79
2021/01/22 00:37:56;;;;;;;1.30;0.60;;;14.00;99.90;;;;;;20759380;28;20222;-77
2021/01/22 00:48:00;;;;;;;0.83;0.43;;;13.80;99.90;;;;;;20775172;28;20222;-77
2021/01/22 00:58:03;;;;;;;1.67;1.07;;;13.60;99.90;;;;;;20699483;28;20289;-76
2021/01/22 01:08:07;;;;;;;1.70;0.40;;;13.40;99.90;;;;;;20785329;23;20238;-67
2021/01/22 01:18:09;;;;;;;0.20;0.10;;;13.50;99.90;;;;;;20783446;28;20212;-69
2021/01/22 01:28:14;;;;;;;0.40;0.20;;;13.50;99.90;;;;;;20785375;28;20745;-68
2021/01/22 01:38:17;;;;;;;1.17;0.30;;;13.70;99.90;;;;;;20782688;28;20202;-68
2021/01/22 01:48:21;;;;;;;0.50;0.47;;;14.10;99.90;;;;;;20793814;28;20236;-68
2021/01/22 01:58:25;;;;;;;1.20;0.40;;;14.20;99.90;;;;;;20864854;28;20287;-68
2021/01/22 02:08:29;;;;;;;0.87;0.40;;;14.20;99.90;;;;;;20876390;22;20245;-81
2021/01/22 02:18:33;;;;;;;0.20;0.10;;;14.00;99.90;;;;;;20841092;28;20198;-78
2021/01/22 02:28:38;;;;;;;2.00;0.33;;;13.60;99.90;;;;;;20861251;28;20544;-79
2021/01/22 02:38:43;;;;;;;0.30;0.30;;;13.80;99.90;;;;;;20858129;28;20252;-78
2021/01/22 02:48:47;;;;;;;0.20;0.20;;;14.20;99.90;;;;;;20860768;28;20237;-80
2021/01/22 02:58:58;;;;;;;0.20;0.10;;;14.80;99.90;;;;;;20861112;28;20288;-78
2021/01/22 03:09:03;;;;;;;0.40;0.40;;;15.00;99.90;;;;;;20843475;28;20569;-82
2021/01/22 03:19:06;;;;;;;0.20;0.13;;;14.80;99.90;;;;;;20858982;28;20197;-77
2021/01/22 03:29:09;;;;;;;0.40;0.40;;;14.60;99.90;;;;;;20858831;28;20275;-77
2021/01/22 03:39:12;;;;;;;0.20;0.10;;;14.40;99.90;;;;;;20856063;28;20676;-77
2021/01/22 03:49:16;;;;;;;0.40;0.40;;;14.30;99.90;;;;;;20857179;28;20583;-79
2021/01/22 03:59:19;;;;;;;1.57;0.20;;;14.30;99.90;;;;;;20873543;22;20201;-69
2021/01/22 04:09:22;;;;;;;0.50;0.33;;;14.40;99.90;;;;;;20853798;28;20701;-71
2021/01/22 04:19:25;;;;;;;0.40;0.30;;;14.40;99.90;;;;;;20790610;28;20275;-70
2021/01/22 04:29:29;;;;;;;0.20;0.10;;;14.60;99.90;;;;;;20772124;28;20301;-70
2021/01/22 04:39:32;;;;;;;0.20;0.20;;;14.70;99.90;;;;;;20847870;28;20273;-70
2021/01/22 04:49:36;;;;;;;0.40;0.30;;;15.20;99.90;;;;;;20871309;28;20257;-71
2021/01/22 04:59:46;;;;;;;0.20;0.10;;;15.10;99.90;;;;;;20867779;28;20264;-68
2021/01/22 05:09:51;;;;;;;0.20;0.10;;;15.10;99.90;;;;;;20866723;28;20240;-70
2021/01/22 05:20:06;;;;;;;9.60;0.47;;;14.80;99.90;;;;;;20863615;28;20193;-70
2021/01/22 05:30:13;;;;;;;0.20;0.07;;;13.90;99.90;;;;;;20868344;28;21202;-71
2021/01/22 05:40:18;;;;;;;2.00;0.53;;;14.10;99.90;;;;;;20863288;28;20201;-71
2021/01/22 05:50:21;;;;;;;0.30;0.30;;;14.40;99.90;;;;;;20863074;28;20225;-71
2021/01/22 06:00:27;;;;;;;0.20;0.10;;;14.40;99.90;;;;;;20844510;28;20233;-72
2021/01/22 06:10:35;;;;;;;0.30;0.20;;;14.20;99.90;;;;;;20844441;28;20221;-70
2021/01/22 06:20:42;;;;;;;0.20;0.10;;;14.20;99.90;;;;;;20844649;28;20220;-71
2021/01/22 06:30:47;;;;;;;0.20;0.10;;;14.20;99.90;;;;;;20825350;28;20315;-70
2021/01/22 06:40:51;;;;;;;0.20;0.10;;;13.90;99.90;;;;;;20859181;28;20308;-70
2021/01/22 06:51:14;;;;;;;0.20;0.10;;;13.90;99.90;;;;;;20856653;28;20240;-70
2021/01/22 07:01:41;;;;;;;0.80;0.80;;;14.00;99.90;;;;;;20853509;28;20308;-69
2021/01/22 07:11:52;;;;;;;0.20;0.10;;;14.20;99.90;;;;;;20830268;28;20233;-69
2021/01/22 07:21:55;;;;;;;0.20;0.10;;;14.60;99.90;;;;;;20853807;28;20193;-72
2021/01/22 07:32:01;;;;;;;0.20;0.10;;;14.70;99.90;;;;;;20853210;28;20583;-71
2021/01/22 07:42:06;;;;;;;3.20;0.23;;;14.90;99.90;;;;;;20851341;28;20209;-72
2021/01/22 07:52:10;;;;;;;0.50;0.40;;;14.70;99.90;;;;;;20856988;28;20331;-69
2021/01/22 08:02:15;;;;;;;0.73;0.73;;;14.60;99.90;;;;;;20849796;28;20225;-72
2021/01/22 08:12:19;;;;;;;0.23;0.17;;;14.90;99.90;;;;;;20854023;28;20229;-70
2021/01/22 08:22:30;;;;;;;9.83;0.77;;;15.20;99.90;;;;;;20866633;28;20212;-70
2021/01/22 08:32:34;;;;;;;1.67;0.63;;;14.90;99.90;;;;;;20866598;28;20220;-72
2021/01/22 08:42:38;;;;;;;0.20;0.10;;;14.80;99.90;;;;;;20865047;28;20459;-70
2021/01/22 08:52:42;;;;;;;0.20;0.10;;;8.80;99.90;;;;;;20862439;28;20690;-70
2021/01/22 09:02:45;;;;;;;0.40;0.30;;;9.40;99.90;;;;;;20864950;28;20675;-71
2021/01/22 09:12:49;;;;;;;0.20;0.10;;;9.80;99.90;;;;;;20845849;28;20563;-70
2021/01/22 09:22:54;;;;;;;0.20;0.10;;;9.80;99.90;;;;;;20847257;28;20633;-71
2021/01/22 09:32:59;;;;;;;0.27;0.20;;;9.60;99.90;;;;;;20823964;28;20311;-70
2021/01/22 09:43:02;;;;;;;0.20;0.10;;;9.50;99.90;;;;;;20849126;28;20198;-71
2021/01/22 09:53:06;;;;;;;0.20;0.10;;;10.00;99.90;;;;;;20826918;28;20229;-70
2021/01/22 10:03:23;;;;;;;0.20;0.10;;;10.50;99.90;;;;;;20856192;28;20574;-71
2021/01/22 10:13:27;;;;;;;0.20;0.10;;;11.10;99.90;;;;;;20840487;28;20260;-70
2021/01/22 10:23:30;;;;;;;0.20;0.10;;;11.30;99.90;;;;;;20855134;28;20201;-73
2021/01/22 10:33:34;;;;;;;0.20;0.13;;;11.60;99.90;;;;;;20857632;28;20343;-71
2021/01/22 10:43:38;;;;;;;0.20;0.10;;;12.30;99.90;;;;;;20837170;28;20723;-73
2021/01/22 10:53:42;;;;;;;0.20;0.10;;;12.70;99.90;;;;;;20856333;28;20709;-73
2021/01/22 11:03:45;;;;;;;0.20;0.10;;;12.60;99.90;;;;;;20854817;28;20216;-73
2021/01/22 11:13:50;;;;;;;0.20;0.10;;;13.40;99.90;;;;;;20836280;28;20236;-70
2021/01/22 11:24:00;;;;;;;0.20;0.10;;;14.30;99.90;;;;;;20792282;28;20198;-71
2021/01/22 11:34:28;;;;;;;0.47;0.47;;;14.80;99.90;;;;;;20772659;28;20463;-73
2021/01/22 11:44:33;;;;;;;0.20;0.10;;;15.50;99.90;;;;;;20772601;28;20234;-71
2021/01/22 11:54:37;;;;;;;0.20;0.10;;;15.70;99.90;;;;;;20795197;28;20213;-72
2021/01/22 12:04:39;;;;;;;0.20;0.10;;;16.30;99.90;;;;;;20783330;28;20237;-70
2021/01/22 12:14:44;;;;;;;0.20;0.10;;;17.00;99.90;;;;;;20786211;28;20763;-69
2021/01/22 12:24:46;;;;;;;0.20;0.10;;;16.50;99.90;;;;;;20840156;28;20217;-70
2021/01/22 12:34:52;;;;;;;0.20;0.10;;;18.10;99.90;;;;;;20833917;28;20219;-69
2021/01/22 12:44:55;;;;;;;0.20;0.10;;;17.60;99.90;;;;;;20863660;28;20757;-67
2021/01/22 12:54:58;;;;;;;0.23;0.10;;;15.90;99.90;;;;;;20865165;28;20686;-70
2021/01/22 13:05:01;;;;;;;0.20;0.13;;;15.40;99.90;;;;;;20843447;28;20654;-70
2021/01/22 13:15:07;;;;;;;0.20;0.10;;;15.00;99.90;;;;;;20865618;28;20212;-68
2021/01/22 13:25:10;;;;;;;0.20;0.10;;;14.90;99.90;;;;;;20840783;28;20260;-68
2021/01/22 13:35:15;;;;;;;0.20;0.10;;;14.90;99.90;;;;;;20837502;28;20628;-69
2021/01/22 13:45:17;;;;;;;0.30;0.23;;;14.50;99.90;;;;;;20857388;28;20322;-71
2021/01/22 13:55:38;;;;;;;0.20;0.20;;;14.10;99.90;;;;;;20858942;28;20193;-70
2021/01/22 14:05:41;;;;;;;0.20;0.10;;;14.00;99.90;;;;;;20825149;28;20248;-68
2021/01/22 14:15:45;;;;;;;0.20;0.10;;;13.90;99.90;;;;;;20856890;28;20217;-69
2021/01/22 14:25:47;;;;;;;0.20;0.10;;;13.80;99.90;;;;;;20842089;28;20444;-69
2021/01/22 14:35:51;;;;;;;0.20;0.10;;;13.80;99.90;;;;;;20853545;28;20276;-69
2021/01/22 14:45:53;;;;;;;0.20;0.20;;;13.70;99.90;;;;;;20842730;28;20327;-67
2021/01/22 14:55:57;;;;;;;0.20;0.10;;;13.80;99.90;;;;;;20849763;28;20205;-68
2021/01/22 15:06:06;;;;;;;0.20;0.17;;;13.80;99.90;;;;;;20851262;28;20236;-70
2021/01/22 15:16:21;;;;;;;0.20;0.10;;;13.80;99.90;;;;;;20850407;28;20189;-71
2021/01/22 15:26:24;;;;;;;0.20;0.10;;;13.70;99.90;;;;;;20848671;28;20674;-71
2021/01/22 15:36:30;;;;;;;0.20;0.10;;;13.70;99.90;;;;;;20802158;28;20206;-72
2021/01/22 15:46:33;;;;;;;0.20;0.10;;;13.50;99.90;;;;;;20848509;28;20544;-70
2021/01/22 15:56:37;;;;;;;0.20;0.10;;;13.40;99.90;;;;;;20850523;28;20232;-71
2021/01/22 16:06:40;;;;;;;0.50;0.40;;;13.30;99.90;;;;;;20852894;28;20599;-72
2021/01/22 16:16:44;;;;;;;0.20;0.20;;;13.20;99.90;;;;;;20831318;28;20280;-70
2021/01/22 16:26:48;;;;;;;0.20;0.00;;;13.30;99.90;;;;;;20847789;28;20239;-70
2021/01/22 16:36:52;;;;;;;0.20;0.10;;;13.30;99.90;;;;;;20858261;28;20290;-70
2021/01/22 16:46:55;;;;;;;3.30;0.27;;;13.30;99.90;;;;;;20858676;28;20225;-71
2021/01/22 16:56:59;;;;;;;0.47;0.47;;;13.30;99.90;;;;;;20852298;28;20198;-68
2021/01/22 17:07:02;;;;;;;0.20;0.10;;;13.20;99.90;;;;;;20842686;28;20234;-71
2021/01/22 17:17:11;;;;;;;0.40;0.37;;;13.10;99.90;;;;;;20842891;28;20205;-71
2021/01/22 17:27:17;;;;;;;0.20;0.17;;;13.00;99.90;;;;;;20847439;28;20236;-73
2021/01/22 17:37:27;;;;;;;0.50;0.50;;;12.80;99.90;;;;;;20850490;28;20276;-71
2021/01/22 17:47:31;;;;;;;0.20;0.10;;;12.70;99.90;;;;;;20850111;28;20220;-71
2021/01/22 17:57:35;;;;;;;1.33;0.70;;;12.50;99.90;;;;;;20851773;28;20601;-71
2021/01/22 18:07:37;;;;;;;0.20;0.20;;;12.40;99.90;;;;;;20855461;28;20414;-72
2021/01/22 18:17:49;;;;;;;0.30;0.20;;;12.20;99.90;;;;;;20836033;28;20193;-74
2021/01/22 18:27:52;;;;;;;0.20;0.10;;;12.00;99.90;;;;;;20856510;28;20247;-72
2021/01/22 18:37:56;;;;;;;0.20;0.10;;;12.10;99.90;;;;;;20855586;28;21270;-74
2021/01/22 18:47:59;;;;;;;0.20;0.17;;;11.90;99.90;;;;;;20853521;28;20232;-73
2021/01/22 18:58:03;;;;;;;0.20;0.10;;;11.70;99.90;;;;;;20837222;28;20868;-73
2021/01/22 19:08:06;;;;;;;0.30;0.30;;;11.40;99.90;;;;;;20853240;28;20240;-75
2021/01/22 19:18:14;;;;;;;0.20;0.10;;;11.30;99.90;;;;;;20854174;28;20335;-74
2021/01/22 19:28:19;;;;;;;0.20;0.10;;;11.20;99.90;;;;;;20850504;28;20263;-73
2021/01/22 19:38:23;;;;;;;0.43;0.20;;;11.10;99.90;;;;;;20852125;28;20595;-72
2021/01/22 19:48:26;;;;;;;0.20;0.10;;;11.00;99.90;;;;;;20850947;28;20333;-72
2021/01/22 19:58:29;;;;;;;0.20;0.20;;;10.80;99.90;;;;;;20853988;28;20201;-73
2021/01/22 20:08:33;;;;;;;0.20;0.10;;;10.60;99.90;;;;;;20757637;28;20312;-74
2021/01/22 20:18:36;;;;;;;6.13;0.33;;;10.50;99.90;;;;;;20787596;28;20477;-74
2021/01/22 20:28:40;;;;;;;0.30;0.30;;;10.50;99.90;;;;;;20785085;28;20722;-72
2021/01/22 20:38:44;;;;;;;0.20;0.10;;;10.50;99.90;;;;;;20718965;28;20202;-73
2021/01/22 20:48:47;;;;;;;0.20;0.10;;;10.40;99.90;;;;;;20715457;28;20769;-73
2021/01/22 20:58:51;;;;;;;0.83;0.30;;;10.20;99.90;;;;;;20782005;28;20198;-73
2021/01/22 21:08:54;;;;;;;0.20;0.10;;;10.10;99.90;;;;;;20858176;28;20493;-75
2021/01/22 21:18:58;;;;;;;0.20;0.10;;;9.90;99.90;;;;;;20864148;28;20204;-73
2021/01/22 21:29:02;;;;;;;0.20;0.10;;;9.90;99.90;;;;;;20861185;28;20236;-73
2021/01/22 21:39:07;;;;;;;0.20;0.20;;;9.90;99.90;;;;;;20862637;28;20472;-73
2021/01/22 21:49:12;;;;;;;0.20;0.10;;;9.80;99.90;;;;;;20859394;28;20685;-71
2021/01/22 21:59:16;;;;;;;0.20;0.10;;;9.70;99.90;;;;;;20860488;28;20617;-72
2021/01/22 22:09:19;;;;;;;0.20;0.10;;;9.80;99.90;;;;;;20857255;28;20587;-76
2021/01/22 22:19:24;;;;;;;0.53;0.23;;;9.60;99.90;;;;;;20858930;28;20202;-75
2021/01/22 22:29:27;;;;;;;0.20;0.10;;;9.60;99.90;;;;;;20857263;28;20261;-72
2021/01/22 22:39:31;;;;;;;0.30;0.30;;;9.40;99.90;;;;;;20855194;28;20552;-74
2021/01/22 22:49:33;;;;;;;0.20;0.10;;;9.30;99.90;;;;;;20854357;28;20249;-70
2021/01/22 22:59:39;;;;;;;0.20;0.10;;;9.30;99.90;;;;;;20856725;28;20536;-70
2021/01/22 23:09:42;;;;;;;0.20;0.10;;;9.60;99.90;;;;;;20854795;28;20289;-69
2021/01/22 23:19:45;;;;;;;0.20;0.20;;;9.70;99.90;;;;;;20854621;28;20921;-71
2021/01/22 23:29:48;;;;;;;0.20;0.10;;;9.80;99.90;;;;;;20786070;28;20706;-68
2021/01/22 23:40:05;;;;;;;0.57;0.57;;;9.60;99.90;;;;;;20855840;28;20637;-76
2021/01/22 23:50:09;;;;;;;0.50;0.47;;;9.60;99.90;;;;;;20871719;28;20228;-69
